Time;durP1;ratioP1;P1;durP2;ratioP2;P2;SDS_P1;SDS_P2;PMS_P1;PMS_P2;Temp;Humidity;BMP_temperature;BMP_pressure;BME280_temperature;BME280_humidity;BME280_pressure;Samples;Min_cycle;Max_cycle;Signal;HPM_P1;HPM_P2
2022/01/26 00:05:47;;;;;;;85.05;30.15;;;3.40;99.90;;;;;;4999704;28;20132;-80
2022/01/26 00:06:40;;;;;;;87.82;31.35;;;3.30;99.90;;;;;;4997318;28;20049;-80
2022/01/26 00:09:09;;;;;;;92.47;30.85;;;3.40;99.90;;;;;;4982964;28;20046;-80
2022/01/26 00:11:36;;;;;;;88.30;30.75;;;3.30;99.90;;;;;;4998085;28;20057;-80
2022/01/26 00:14:08;;;;;;;85.82;29.98;;;3.30;99.90;;;;;;4980363;28;20073;-80
2022/01/26 00:16:42;;;;;;;85.82;31.45;;;3.30;99.90;;;;;;4995853;28;20042;-80
2022/01/26 00:19:12;;;;;;;92.70;30.30;;;3.30;99.90;;;;;;5007316;28;20042;-80
2022/01/26 00:24:21;;;;;;;78.72;28.80;;;3.30;99.90;;;;;;5006328;28;20080;-80
2022/01/26 00:29:25;;;;;;;84.10;30.58;;;3.30;99.90;;;;;;4998849;28;20056;-80
2022/01/26 00:40:38;;;;;;;84.43;28.50;;;3.30;99.90;;;;;;5013727;28;20041;-80
2022/01/26 00:43:21;;;;;;;84.00;29.58;;;3.30;99.90;;;;;;4995633;28;20034;-80
2022/01/26 00:45:54;;;;;;;84.93;29.52;;;3.20;99.90;;;;;;5001451;28;20630;-80
2022/01/26 00:48:21;;;;;;;83.18;28.65;;;3.30;99.90;;;;;;4982084;28;20037;-80
2022/01/26 00:50:50;;;;;;;89.82;30.15;;;3.30;99.90;;;;;;4999087;28;20501;-80
2022/01/26 00:53:24;;;;;;;87.85;30.70;;;3.30;99.90;;;;;;4987461;28;20404;-80
2022/01/26 00:55:50;;;;;;;84.53;31.25;;;3.20;99.90;;;;;;4997649;28;20125;-80
2022/01/26 00:58:16;;;;;;;89.50;29.75;;;3.20;99.90;;;;;;4998460;28;20954;-80
2022/01/26 01:00:42;;;;;;;89.53;29.95;;;3.20;99.90;;;;;;4993913;28;20034;-80
2022/01/26 01:03:07;;;;;;;89.10;31.45;;;3.30;99.90;;;;;;5004405;28;20065;-80
2022/01/26 01:05:44;;;;;;;87.78;31.33;;;3.20;99.90;;;;;;4996330;28;20116;-80
2022/01/26 01:08:15;;;;;;;92.72;31.23;;;3.20;99.90;;;;;;4979368;28;20045;-80
2022/01/26 01:10:44;;;;;;;88.70;29.85;;;3.20;99.90;;;;;;5005681;28;20060;-80
2022/01/26 01:13:15;;;;;;;89.93;32.03;;;3.20;99.90;;;;;;4982980;28;20448;-80
2022/01/26 01:15:40;;;;;;;86.57;31.02;;;3.20;99.90;;;;;;4994887;28;20074;-80
2022/01/26 01:18:20;;;;;;;93.80;31.17;;;3.20;99.90;;;;;;4976611;28;20401;-80
2022/01/26 01:31:11;;;;;;;96.93;32.20;;;3.20;99.90;;;;;;4995074;28;20118;-80
2022/01/26 01:33:43;;;;;;;86.68;30.17;;;3.10;99.90;;;;;;4996659;28;20052;-80
2022/01/26 01:36:10;;;;;;;96.22;32.30;;;3.10;99.90;;;;;;5012897;28;20046;-80
2022/01/26 01:38:40;;;;;;;102.22;33.50;;;3.20;99.90;;;;;;5015539;28;20129;-80
2022/01/26 01:41:08;;;;;;;89.65;30.40;;;3.10;99.90;;;;;;4993882;28;20061;-80
2022/01/26 01:43:34;;;;;;;93.57;32.25;;;3.10;99.90;;;;;;4987738;28;20036;-80
2022/01/26 01:46:01;;;;;;;104.57;32.58;;;3.20;99.90;;;;;;4977037;28;20066;-80
2022/01/26 01:48:30;;;;;;;98.82;31.90;;;3.20;99.90;;;;;;5006699;28;20045;-80
2022/01/26 01:50:59;;;;;;;98.20;33.55;;;3.20;99.90;;;;;;4999198;28;20563;-80
2022/01/26 01:53:36;;;;;;;91.82;31.63;;;3.10;99.90;;;;;;4984169;28;20034;-80
2022/01/26 01:56:03;;;;;;;96.55;31.48;;;3.10;99.90;;;;;;5015044;28;20034;-80
2022/01/26 01:58:29;;;;;;;106.75;33.25;;;3.10;99.90;;;;;;4969581;28;20033;-80
2022/01/26 02:00:56;;;;;;;90.95;32.35;;;3.10;99.90;;;;;;4989565;28;20124;-80
2022/01/26 02:03:24;;;;;;;85.00;29.67;;;3.20;99.90;;;;;;5008684;28;20515;-80
2022/01/26 02:05:50;;;;;;;89.97;32.13;;;3.10;99.90;;;;;;5002894;28;20038;-80
2022/01/26 02:08:16;;;;;;;106.03;33.95;;;3.10;99.90;;;;;;4980799;28;20045;-80
2022/01/26 02:10:42;;;;;;;94.55;31.38;;;3.10;99.90;;;;;;4995766;28;20042;-80
2022/01/26 02:13:23;;;;;;;97.43;32.67;;;3.20;99.90;;;;;;4976417;28;20036;-80
2022/01/26 02:56:04;;;;;;;88.20;30.20;;;3.00;99.90;;;;;;4996022;28;20046;-80
2022/01/26 03:03:40;;;;;;;93.35;30.05;;;3.00;99.90;;;;;;4999343;28;20064;-80
2022/01/26 03:06:11;;;;;;;86.40;29.65;;;3.00;99.90;;;;;;4979516;28;20034;-80
2022/01/26 03:08:44;;;;;;;88.82;29.58;;;3.00;99.90;;;;;;4997945;28;20048;-80
2022/01/26 03:11:13;;;;;;;95.82;31.58;;;3.10;99.90;;;;;;4999099;28;20110;-81
2022/01/26 03:13:51;;;;;;;97.03;30.35;;;3.00;99.90;;;;;;4997505;28;20033;-80
2022/01/26 03:16:27;;;;;;;90.72;30.17;;;3.00;99.90;;;;;;4995331;28;20029;-79
2022/01/26 03:18:59;;;;;;;85.75;29.38;;;3.00;99.90;;;;;;5011320;28;20048;-80
2022/01/26 03:21:39;;;;;;;;;;;3.00;99.90;;;;;;4981334;28;20119;-80
2022/01/26 03:34:29;;;;;;;94.50;31.60;;;2.90;99.90;;;;;;4999721;28;20280;-80
2022/01/26 03:37:04;;;;;;;85.88;31.33;;;3.00;99.90;;;;;;4994906;28;20058;-80
2022/01/26 03:39:30;;;;;;;92.75;30.27;;;3.00;99.90;;;;;;4993584;28;20042;-80
2022/01/26 03:42:04;;;;;;;88.88;30.00;;;3.00;99.90;;;;;;4982938;28;20038;-80
2022/01/26 03:44:31;;;;;;;88.78;29.80;;;2.90;99.90;;;;;;5003161;28;20049;-80
2022/01/26 03:46:57;;;;;;;83.97;28.70;;;3.00;99.90;;;;;;5001182;28;20102;-80
2022/01/26 03:49:23;;;;;;;83.50;29.83;;;3.00;99.90;;;;;;4992960;28;20054;-80
2022/01/26 03:51:49;;;;;;;82.53;29.38;;;3.00;99.90;;;;;;4996883;28;20065;-80
2022/01/26 03:54:16;;;;;;;91.05;29.25;;;3.00;99.90;;;;;;4979144;28;20072;-80
2022/01/26 03:56:42;;;;;;;84.18;29.80;;;3.00;99.90;;;;;;4994266;28;20069;-80
2022/01/26 03:59:08;;;;;;;87.20;30.10;;;3.00;99.90;;;;;;4998223;28;20077;-80
2022/01/26 04:01:34;;;;;;;85.18;28.85;;;3.00;99.90;;;;;;4982888;28;20097;-80
2022/01/26 04:04:00;;;;;;;84.60;31.05;;;2.90;99.90;;;;;;4996700;28;20113;-79
2022/01/26 04:06:26;;;;;;;80.50;29.35;;;3.00;99.90;;;;;;4981801;28;20112;-80
2022/01/26 04:08:52;;;;;;;88.20;29.52;;;2.90;99.90;;;;;;4982946;28;20030;-80
2022/01/26 04:11:30;;;;;;;78.10;28.27;;;3.00;99.90;;;;;;4977743;28;20052;-79
2022/01/26 04:13:58;;;;;;;81.63;27.20;;;3.00;99.90;;;;;;4998877;28;20077;-80
2022/01/26 04:16:24;;;;;;;82.65;28.73;;;3.00;99.90;;;;;;4987037;28;20595;-80
2022/01/26 04:18:52;;;;;;;81.97;29.02;;;3.00;99.90;;;;;;5021356;28;20611;-79
2022/01/26 04:23:54;;;;;;;78.85;28.02;;;2.90;99.90;;;;;;5005910;28;20042;-80
2022/01/26 04:26:25;;;;;;;76.55;27.15;;;2.90;99.90;;;;;;4982786;28;20053;-80
2022/01/26 04:28:59;;;;;;;84.22;28.83;;;2.90;99.90;;;;;;4997184;28;20486;-80
2022/01/26 04:31:25;;;;;;;81.60;27.25;;;3.00;99.90;;;;;;4975724;28;20050;-80
2022/01/26 04:33:52;;;;;;;82.85;28.13;;;2.90;99.90;;;;;;4999151;28;20041;-79
2022/01/26 04:36:26;;;;;;;75.75;28.33;;;2.90;99.90;;;;;;4972386;28;20033;-80
2022/01/26 04:38:55;;;;;;;83.40;28.95;;;2.90;99.90;;;;;;4998631;28;20054;-80
2022/01/26 04:41:36;;;;;;;79.28;27.13;;;2.90;99.90;;;;;;4976379;28;20042;-80
2022/01/26 04:44:25;;;;;;;79.43;28.85;;;2.90;99.90;;;;;;4981979;28;20033;-80
2022/01/26 04:46:49;;;;;;;83.55;28.88;;;2.90;99.90;;;;;;4999095;28;20509;-80
2022/01/26 04:49:15;;;;;;;74.85;27.55;;;2.90;99.90;;;;;;4984431;28;20037;-80
2022/01/26 04:51:41;;;;;;;80.40;28.27;;;2.90;99.90;;;;;;5004313;28;20069;-80
2022/01/26 04:54:07;;;;;;;79.88;28.58;;;2.90;99.90;;;;;;5004662;28;20077;-80
2022/01/26 04:56:33;;;;;;;76.43;28.38;;;2.90;99.90;;;;;;4996902;28;20125;-80
2022/01/26 04:58:59;;;;;;;86.07;28.23;;;2.90;99.90;;;;;;5002955;28;20037;-80
2022/01/26 05:01:24;;;;;;;75.05;28.63;;;2.90;99.90;;;;;;4987361;28;20085;-80
2022/01/26 05:03:50;;;;;;;78.80;28.20;;;2.90;99.90;;;;;;4983255;28;20044;-80
2022/01/26 05:06:16;;;;;;;79.07;27.65;;;2.90;99.90;;;;;;4997993;28;20037;-80
2022/01/26 05:08:44;;;;;;;79.97;28.63;;;2.80;99.90;;;;;;4976022;28;20440;-79
2022/01/26 05:11:14;;;;;;;69.13;26.35;;;2.90;99.90;;;;;;4999806;28;20509;-80
2022/01/26 05:13:40;;;;;;;80.07;29.45;;;2.90;99.90;;;;;;4996122;28;20096;-80
2022/01/26 05:16:08;;;;;;;72.10;27.25;;;2.80;99.90;;;;;;4983403;28;20452;-80
2022/01/26 05:18:34;;;;;;;71.90;26.83;;;2.80;99.90;;;;;;4991584;28;20037;-80
2022/01/26 05:21:00;;;;;;;79.85;26.52;;;2.90;99.90;;;;;;4998757;28;20560;-80
2022/01/26 05:23:25;;;;;;;67.90;26.02;;;2.90;99.90;;;;;;4999556;28;20381;-80
2022/01/26 05:25:51;;;;;;;66.03;25.63;;;2.80;99.90;;;;;;4999393;28;20095;-80
2022/01/26 05:28:17;;;;;;;65.95;25.83;;;2.80;99.90;;;;;;4995097;28;20566;-80
2022/01/26 05:30:43;;;;;;;72.78;27.67;;;2.90;99.90;;;;;;4992042;28;20117;-80
2022/01/26 05:33:09;;;;;;;68.28;25.60;;;2.80;99.90;;;;;;5002820;28;20047;-79
2022/01/26 05:35:34;;;;;;;72.22;26.58;;;2.80;99.90;;;;;;4997088;28;20050;-80
2022/01/26 05:38:00;;;;;;;68.70;26.38;;;2.80;99.90;;;;;;4978127;28;20058;-80
2022/01/26 05:40:26;;;;;;;65.78;26.20;;;2.80;99.90;;;;;;4973634;28;20507;-79
2022/01/26 05:42:52;;;;;;;72.30;25.70;;;2.80;99.90;;;;;;4977588;28;20053;-80
2022/01/26 05:45:35;;;;;;;69.60;26.30;;;2.70;99.90;;;;;;4982774;28;20068;-80
2022/01/26 05:48:03;;;;;;;70.50;26.20;;;2.80;99.90;;;;;;4976870;28;20133;-80
2022/01/26 05:50:31;;;;;;;62.50;24.77;;;2.80;99.90;;;;;;4974621;28;20294;-80
2022/01/26 05:52:57;;;;;;;70.22;26.17;;;2.80;99.90;;;;;;4979197;28;20042;-80
2022/01/26 05:55:23;;;;;;;69.50;24.42;;;2.70;99.90;;;;;;4982340;28;20041;-80
2022/01/26 05:57:48;;;;;;;65.50;24.65;;;2.70;99.90;;;;;;4979615;28;20053;-80
2022/01/26 06:00:14;;;;;;;62.78;24.20;;;2.70;99.90;;;;;;4987452;28;20038;-80
2022/01/26 06:02:40;;;;;;;65.03;23.58;;;2.70;99.90;;;;;;4989197;28;20044;-80
2022/01/26 06:05:08;;;;;;;62.72;23.60;;;2.70;99.90;;;;;;4994794;28;20468;-79
2022/01/26 06:07:33;;;;;;;62.53;23.60;;;2.70;99.90;;;;;;5009752;28;20046;-80
2022/01/26 06:09:59;;;;;;;58.58;22.83;;;2.70;99.90;;;;;;4999479;28;20057;-79
2022/01/26 06:12:25;;;;;;;57.47;22.45;;;2.70;99.90;;;;;;4993251;28;20183;-80
2022/01/26 06:14:52;;;;;;;62.22;24.10;;;2.70;99.90;;;;;;5008982;28;20171;-80
2022/01/26 06:17:18;;;;;;;62.35;23.02;;;2.70;99.90;;;;;;5003696;28;20141;-80
2022/01/26 06:19:44;;;;;;;63.42;24.17;;;2.70;99.90;;;;;;4985610;28;20046;-80
2022/01/26 06:22:09;;;;;;;62.85;23.15;;;2.70;99.90;;;;;;4981207;28;20037;-80
2022/01/26 06:24:38;;;;;;;64.07;23.58;;;2.70;99.90;;;;;;5010536;28;20061;-80
2022/01/26 06:27:04;;;;;;;63.70;23.33;;;2.70;99.90;;;;;;4982667;28;20041;-80
2022/01/26 06:29:31;;;;;;;64.03;24.35;;;2.70;99.90;;;;;;4976517;28;20057;-80
2022/01/26 06:31:57;;;;;;;62.63;23.73;;;2.60;99.90;;;;;;4978369;28;20498;-80
2022/01/26 06:34:23;;;;;;;61.10;23.70;;;2.70;99.90;;;;;;5001864;28;20125;-80
2022/01/26 06:36:48;;;;;;;60.97;23.15;;;2.70;99.90;;;;;;4999468;28;20139;-80
2022/01/26 06:39:14;;;;;;;64.55;24.58;;;2.70;99.90;;;;;;5002500;28;20049;-80
2022/01/26 06:41:49;;;;;;;68.97;24.65;;;2.70;99.90;;;;;;4979261;28;20117;-80
2022/01/26 06:44:25;;;;;;;58.33;22.58;;;2.70;99.90;;;;;;4983105;28;20429;-80
2022/01/26 06:47:57;;;;;;;56.83;23.65;;;2.70;99.90;;;;;;5003228;28;20385;-80
2022/01/26 06:49:46;;;;;;;62.20;23.53;;;2.70;99.90;;;;;;4998327;28;20052;-80
2022/01/26 06:52:12;;;;;;;63.20;22.77;;;2.70;99.90;;;;;;4981375;28;20060;-80
2022/01/26 06:54:37;;;;;;;56.40;21.05;;;2.70;99.90;;;;;;5000855;28;20038;-80
2022/01/26 06:57:03;;;;;;;63.45;23.40;;;2.70;99.90;;;;;;4996859;28;20046;-80
2022/01/26 06:59:29;;;;;;;63.53;23.77;;;2.70;99.90;;;;;;5001190;28;20131;-80
2022/01/26 07:01:55;;;;;;;56.58;21.83;;;2.70;99.90;;;;;;4992649;28;20077;-80
2022/01/26 07:04:23;;;;;;;63.47;24.55;;;2.70;99.90;;;;;;4997420;28;20129;-80
2022/01/26 07:06:48;;;;;;;59.30;22.52;;;2.70;99.90;;;;;;4987350;28;20512;-80
2022/01/26 07:09:16;;;;;;;61.92;25.23;;;2.70;99.90;;;;;;4981314;28;20538;-80
2022/01/26 07:11:42;;;;;;;61.30;23.70;;;2.70;99.90;;;;;;4980677;28;20034;-80
2022/01/26 07:14:10;;;;;;;56.28;23.60;;;2.80;99.90;;;;;;5001459;28;20537;-80
2022/01/26 07:20:08;;;;;;;58.15;23.58;;;2.70;99.90;;;;;;5000227;28;21205;-80
2022/01/26 07:22:13;;;;;;;60.85;25.02;;;2.80;99.90;;;;;;4994807;28;20045;-80
2022/01/26 07:24:38;;;;;;;63.38;26.17;;;2.80;99.90;;;;;;4996299;28;20448;-80
2022/01/26 07:27:04;;;;;;;73.53;27.80;;;2.80;99.90;;;;;;4995713;28;20042;-80
2022/01/26 07:29:32;;;;;;;71.80;26.38;;;2.70;99.90;;;;;;4998425;28;20038;-80
2022/01/26 07:31:58;;;;;;;68.07;27.00;;;2.70;99.90;;;;;;4985741;28;20053;-80
2022/01/26 07:34:24;;;;;;;67.25;26.02;;;2.80;99.90;;;;;;5000658;28;20060;-80
2022/01/26 07:36:53;;;;;;;74.70;27.73;;;2.80;99.90;;;;;;4991552;28;20470;-80
2022/01/26 07:39:29;;;;;;;72.88;28.15;;;2.70;99.90;;;;;;4999507;28;20037;-80
2022/01/26 07:41:56;;;;;;;79.50;29.92;;;2.80;99.90;;;;;;4974155;28;20045;-80
2022/01/26 07:44:22;;;;;;;80.47;28.52;;;2.80;99.90;;;;;;4995356;28;20038;-79
2022/01/26 07:46:48;;;;;;;74.57;27.67;;;2.80;99.90;;;;;;5003431;28;20075;-80
2022/01/26 07:49:14;;;;;;;76.65;28.58;;;2.80;99.90;;;;;;4995657;28;20124;-80
2022/01/26 07:51:39;;;;;;;75.85;29.25;;;2.80;99.90;;;;;;5002493;28;20405;-80
2022/01/26 07:54:05;;;;;;;75.40;28.73;;;2.80;99.90;;;;;;4997723;28;20175;-80
2022/01/26 07:56:31;;;;;;;77.97;28.85;;;2.80;99.90;;;;;;4993725;28;20067;-80
2022/01/26 07:58:58;;;;;;;71.30;29.40;;;2.80;99.90;;;;;;4975839;28;20482;-80
2022/01/26 08:01:27;;;;;;;69.00;27.08;;;2.90;99.90;;;;;;4992266;28;20073;-80
2022/01/26 08:03:52;;;;;;;79.00;30.65;;;2.90;99.90;;;;;;4984634;28;20073;-80
2022/01/26 08:06:18;;;;;;;76.40;31.20;;;2.90;99.90;;;;;;4979945;28;20054;-80
2022/01/26 08:08:44;;;;;;;80.93;31.35;;;2.90;99.90;;;;;;4981572;28;20129;-80
2022/01/26 08:11:10;;;;;;;80.65;32.33;;;2.90;99.90;;;;;;4980907;28;20517;-80
2022/01/26 08:13:36;;;;;;;85.43;31.67;;;2.90;99.90;;;;;;4998016;28;20129;-80
2022/01/26 08:16:05;;;;;;;92.88;35.65;;;3.00;99.90;;;;;;4974369;28;20037;-80
2022/01/26 08:18:31;;;;;;;86.20;35.00;;;3.00;99.90;;;;;;4992788;28;20049;-80
2022/01/26 08:21:04;;;;;;;91.57;34.90;;;3.00;99.90;;;;;;4983772;28;20038;-80
2022/01/26 08:23:30;;;;;;;89.53;35.38;;;3.00;99.90;;;;;;5000973;28;20359;-80
2022/01/26 08:25:58;;;;;;;86.13;33.97;;;3.00;99.90;;;;;;4992979;28;20473;-80
2022/01/26 08:28:33;;;;;;;90.85;34.55;;;3.00;99.90;;;;;;5001895;28;20045;-80
2022/01/26 08:30:58;;;;;;;91.93;34.72;;;3.00;99.90;;;;;;5004944;28;20045;-80
2022/01/26 08:33:24;;;;;;;88.35;34.60;;;3.10;99.90;;;;;;5000650;28;20772;-80
2022/01/26 08:35:50;;;;;;;98.25;38.45;;;3.10;99.90;;;;;;5000593;28;20048;-80
2022/01/26 08:38:15;;;;;;;88.97;36.78;;;3.10;99.90;;;;;;4969859;28;20422;-80
2022/01/26 08:40:43;;;;;;;101.30;39.10;;;3.20;99.90;;;;;;4975131;28;20042;-80
2022/01/26 08:43:09;;;;;;;99.93;38.13;;;3.20;99.90;;;;;;4982254;28;20069;-79
2022/01/26 08:45:35;;;;;;;95.85;39.50;;;3.20;99.90;;;;;;4994451;28;20135;-80
2022/01/26 08:48:00;;;;;;;97.03;37.95;;;3.20;99.90;;;;;;4997796;28;20129;-80
2022/01/26 08:50:26;;;;;;;94.18;36.00;;;3.20;99.90;;;;;;4978310;28;20044;-79
2022/01/26 08:52:52;;;;;;;107.53;39.35;;;3.30;99.90;;;;;;4996080;28;20044;-80
2022/01/26 08:55:18;;;;;;;99.57;36.67;;;3.30;99.90;;;;;;5001731;28;20076;-80
2022/01/26 08:57:44;;;;;;;101.47;37.78;;;3.30;99.90;;;;;;5008898;28;20049;-80
2022/01/26 09:00:11;;;;;;;102.28;38.78;;;3.30;99.90;;;;;;4996260;28;20116;-80
2022/01/26 09:02:37;;;;;;;103.15;39.13;;;3.40;99.90;;;;;;4987053;28;21591;-80
2022/01/26 09:05:06;;;;;;;97.18;39.15;;;3.40;99.90;;;;;;4974760;28;20037;-80
2022/01/26 09:07:32;;;;;;;105.07;39.08;;;3.40;99.90;;;;;;4992773;28;20053;-80
2022/01/26 09:10:00;;;;;;;106.47;40.33;;;3.40;99.90;;;;;;4995717;28;20133;-80
2022/01/26 09:12:27;;;;;;;107.60;39.47;;;3.40;99.90;;;;;;4995622;28;20466;-80
2022/01/26 09:14:53;;;;;;;108.65;40.97;;;3.40;99.90;;;;;;4975109;28;20034;-80
2022/01/26 09:17:19;;;;;;;104.30;38.92;;;3.50;99.90;;;;;;5008543;28;20127;-80
2022/01/26 09:19:47;;;;;;;104.60;39.75;;;3.50;99.90;;;;;;4988136;28;20048;-80
2022/01/26 09:22:15;;;;;;;99.55;39.35;;;3.50;99.90;;;;;;4981172;28;20044;-80
2022/01/26 09:24:43;;;;;;;106.47;40.20;;;3.50;99.90;;;;;;4984431;28;20047;-80
2022/01/26 09:27:12;;;;;;;101.97;41.65;;;3.60;99.90;;;;;;5013315;28;20149;-80
2022/01/26 09:29:38;;;;;;;99.05;40.15;;;3.60;99.90;;;;;;4976943;28;20041;-80
2022/01/26 09:32:07;;;;;;;105.63;42.30;;;3.60;99.90;;;;;;5008832;28;20046;-80
2022/01/26 09:34:37;;;;;;;106.43;39.05;;;3.60;99.90;;;;;;4995299;28;20046;-80
2022/01/26 09:37:09;;;;;;;104.43;41.25;;;3.60;99.90;;;;;;4976348;28;20472;-80
2022/01/26 09:39:34;;;;;;;106.45;41.03;;;3.60;99.90;;;;;;4995030;28;20040;-80
2022/01/26 09:42:01;;;;;;;106.57;41.33;;;3.70;99.90;;;;;;4979218;28;20372;-80
2022/01/26 09:44:28;;;;;;;103.63;42.22;;;3.70;99.90;;;;;;4979261;28;20077;-80
2022/01/26 09:46:54;;;;;;;106.13;43.30;;;3.70;99.90;;;;;;4995313;28;20038;-80
2022/01/26 09:49:20;;;;;;;109.28;42.35;;;3.70;99.90;;;;;;4985230;28;20532;-80
2022/01/26 09:51:49;;;;;;;109.03;42.55;;;3.70;99.90;;;;;;4969835;28;20038;-80
2022/01/26 09:54:17;;;;;;;99.35;39.50;;;3.70;99.90;;;;;;5005637;28;20373;-79
2022/01/26 09:56:49;;;;;;;100.60;40.70;;;3.70;99.90;;;;;;4998097;28;20356;-80
2022/01/26 09:59:16;;;;;;;99.57;39.47;;;3.80;99.90;;;;;;4981754;28;20030;-80
2022/01/26 10:01:44;;;;;;;99.28;40.40;;;3.80;99.90;;;;;;4982089;28;20397;-80
2022/01/26 10:04:28;;;;;;;94.80;40.55;;;3.90;99.90;;;;;;4997200;28;20132;-80
2022/01/26 10:07:25;;;;;;;102.55;41.65;;;3.90;99.90;;;;;;4973950;28;20049;-80
2022/01/26 10:15:37;;;;;;;93.85;39.92;;;4.00;99.90;;;;;;5003725;28;20445;-80
2022/01/26 10:18:09;;;;;;;97.20;37.08;;;4.00;99.90;;;;;;5006810;28;20457;-80
2022/01/26 10:20:46;;;;;;;91.57;37.70;;;4.00;99.90;;;;;;4992855;28;20041;-79
2022/01/26 10:23:17;;;;;;;82.22;34.83;;;4.00;99.90;;;;;;4981690;28;20399;-80
2022/01/26 10:25:45;;;;;;;90.40;37.67;;;4.10;99.90;;;;;;5011121;28;20042;-80
2022/01/26 10:28:14;;;;;;;93.03;37.13;;;4.10;99.90;;;;;;4998566;28;20116;-80
2022/01/26 10:30:45;;;;;;;87.13;34.33;;;4.10;99.90;;;;;;4996087;28;20223;-80
2022/01/26 10:33:12;;;;;;;83.80;33.72;;;4.20;99.90;;;;;;4997101;28;20052;-80
2022/01/26 10:35:37;;;;;;;86.07;36.35;;;4.20;99.90;;;;;;4994742;28;20034;-80
2022/01/26 10:38:04;;;;;;;87.10;36.83;;;4.20;99.90;;;;;;4991450;28;20058;-80
2022/01/26 10:40:31;;;;;;;83.53;35.45;;;4.30;99.90;;;;;;4992082;28;20523;-80
2022/01/26 10:43:10;;;;;;;84.60;35.33;;;4.20;99.90;;;;;;4992964;28;20073;-80
2022/01/26 10:45:43;;;;;;;82.18;35.35;;;4.30;99.90;;;;;;4977275;28;20034;-80
2022/01/26 10:48:44;;;;;;;85.00;36.20;;;4.30;99.90;;;;;;5003722;28;20069;-80
2022/01/26 10:53:56;;;;;;;85.53;36.22;;;4.40;99.90;;;;;;4992991;28;20066;-80
2022/01/26 10:56:22;;;;;;;79.38;33.08;;;4.40;99.90;;;;;;4978700;28;20199;-80
2022/01/26 10:58:48;;;;;;;82.88;35.00;;;4.40;99.90;;;;;;4994958;28;20170;-80
2022/01/26 11:01:14;;;;;;;78.82;35.10;;;4.40;99.90;;;;;;4978776;28;20047;-80
2022/01/26 11:03:40;;;;;;;83.78;35.53;;;4.50;99.90;;;;;;4982601;28;20220;-80
2022/01/26 11:06:07;;;;;;;86.20;35.28;;;4.50;99.90;;;;;;4981094;28;20049;-80
2022/01/26 11:08:39;;;;;;;80.68;35.42;;;4.50;99.90;;;;;;4981887;28;20176;-80
2022/01/26 11:11:05;;;;;;;83.13;35.28;;;4.50;99.90;;;;;;4988081;28;20060;-80
2022/01/26 11:13:35;;;;;;;83.88;33.90;;;4.50;99.90;;;;;;4998534;28;20058;-80
2022/01/26 11:16:08;;;;;;;78.72;33.72;;;4.50;99.90;;;;;;4976637;28;20061;-80
2022/01/26 11:18:46;;;;;;;72.35;32.45;;;4.50;99.90;;;;;;4982194;28;20099;-81
2022/01/26 11:21:23;;;;;;;74.20;32.22;;;4.60;99.90;;;;;;4996590;28;20521;-80
2022/01/26 11:23:50;;;;;;;77.30;32.25;;;4.60;99.90;;;;;;4987661;28;20384;-80
2022/01/26 11:26:23;;;;;;;73.07;31.30;;;4.60;99.90;;;;;;4987993;28;20080;-80
2022/01/26 11:28:50;;;;;;;69.57;30.42;;;4.60;99.90;;;;;;4989220;28;20042;-81
2022/01/26 11:31:17;;;;;;;76.18;32.47;;;4.50;99.90;;;;;;4974067;28;20400;-80
2022/01/26 11:33:47;;;;;;;76.40;31.90;;;4.60;99.90;;;;;;4997111;28;20127;-80
2022/01/26 11:36:16;;;;;;;70.13;31.60;;;4.60;99.90;;;;;;5025265;28;20093;-80
2022/01/26 11:42:12;;;;;;;82.20;33.42;;;4.60;99.90;;;;;;5008854;28;20119;-80
2022/01/26 11:47:23;;;;;;;77.75;32.15;;;4.70;99.90;;;;;;4995857;28;20046;-80
2022/01/26 11:49:52;;;;;;;82.45;33.90;;;4.70;99.90;;;;;;4998153;28;20145;-80
2022/01/26 11:52:26;;;;;;;87.22;35.80;;;4.80;99.90;;;;;;4974471;28;20136;-80
2022/01/26 11:54:56;;;;;;;90.13;34.20;;;4.70;99.90;;;;;;4986583;28;20045;-81
2022/01/26 11:57:38;;;;;;;85.38;33.50;;;4.70;99.90;;;;;;4994014;28;20073;-80
2022/01/26 12:00:10;;;;;;;80.25;32.70;;;4.80;99.90;;;;;;4984521;28;20466;-80
2022/01/26 12:05:13;;;;;;;78.72;31.90;;;4.60;99.90;;;;;;5003233;28;20153;-80
2022/01/26 12:07:53;;;;;;;80.22;34.05;;;4.50;99.90;;;;;;4976268;28;20509;-80
2022/01/26 12:10:30;;;;;;;82.30;32.85;;;4.60;99.90;;;;;;4999962;28;20124;-80
2022/01/26 12:13:12;;;;;;;84.30;33.85;;;4.60;99.90;;;;;;4988998;28;20116;-80
2022/01/26 12:15:45;;;;;;;85.50;32.92;;;4.60;99.90;;;;;;4975090;28;20042;-81
2022/01/26 12:18:27;;;;;;;74.38;30.15;;;4.60;99.90;;;;;;4996113;28;20042;-80
2022/01/26 12:35:17;;;;;;;78.72;32.50;;;4.80;99.90;;;;;;5005878;28;20125;-80
2022/01/26 12:43:15;;;;;;;80.03;32.67;;;4.70;99.90;;;;;;4993812;28;20050;-80
2022/01/26 12:45:40;;;;;;;70.13;30.25;;;4.70;99.90;;;;;;4999567;28;20536;-81
2022/01/26 12:48:10;;;;;;;73.63;31.73;;;4.70;99.90;;;;;;5018049;28;20085;-80
2022/01/26 12:50:39;;;;;;;75.57;31.05;;;4.70;99.90;;;;;;4990868;28;20080;-80
2022/01/26 12:53:05;;;;;;;79.18;31.52;;;4.70;99.90;;;;;;4990618;28;20038;-81
2022/01/26 12:55:34;;;;;;;72.68;30.92;;;4.70;99.90;;;;;;4987062;28;20042;-80
2022/01/26 12:58:01;;;;;;;71.13;29.08;;;4.60;99.90;;;;;;4988210;28;20081;-81
2022/01/26 13:00:40;;;;;;;77.75;29.60;;;4.60;99.90;;;;;;4981837;28;20048;-81
2022/01/26 13:03:14;;;;;;;70.35;28.65;;;4.60;99.90;;;;;;4985656;28;20064;-81
2022/01/26 13:05:40;;;;;;;76.35;31.98;;;4.60;99.90;;;;;;4986950;28;20328;-80
2022/01/26 13:08:08;;;;;;;73.43;30.92;;;4.70;99.90;;;;;;4995481;28;20558;-81
2022/01/26 13:10:34;;;;;;;74.55;29.08;;;4.70;99.90;;;;;;4986877;28;20046;-81
2022/01/26 13:13:10;;;;;;;73.50;29.60;;;4.70;99.90;;;;;;4990601;28;20394;-81
2022/01/26 13:15:48;;;;;;;83.00;31.58;;;4.70;99.90;;;;;;4987570;28;20080;-80
2022/01/26 13:18:42;;;;;;;75.25;30.05;;;4.80;99.90;;;;;;4993254;28;20037;-81
2022/01/26 13:24:11;;;;;;;63.72;28.73;;;4.80;99.90;;;;;;4991553;28;20107;-81
2022/01/26 13:26:51;;;;;;;78.07;30.67;;;4.80;99.90;;;;;;4980027;28;20622;-81
2022/01/26 13:29:37;;;;;;;64.80;29.02;;;4.80;99.90;;;;;;4977327;28;20042;-80
2022/01/26 13:32:39;;;;;;;72.18;31.45;;;4.90;99.90;;;;;;5000199;28;20046;-80
2022/01/26 13:38:06;;;;;;;74.72;30.13;;;4.90;99.90;;;;;;4985614;28;20058;-81
2022/01/26 13:40:48;;;;;;;69.43;28.83;;;4.90;99.90;;;;;;4976421;28;20121;-81
2022/01/26 13:46:39;;;;;;;66.57;28.35;;;4.90;99.90;;;;;;4989603;28;20113;-80
2022/01/26 13:57:16;;;;;;;65.82;26.83;;;5.00;99.90;;;;;;4977547;28;20050;-82
2022/01/26 13:59:46;;;;;;;61.58;27.08;;;5.00;99.90;;;;;;4993776;28;20389;-80
2022/01/26 14:02:12;;;;;;;69.00;27.42;;;5.00;99.90;;;;;;5005718;28;20529;-81
2022/01/26 14:04:39;;;;;;;66.40;28.48;;;5.10;99.90;;;;;;4986758;28;20117;-81
2022/01/26 14:07:05;;;;;;;61.25;26.92;;;5.20;99.90;;;;;;4990930;28;20037;-80
2022/01/26 14:09:31;;;;;;;60.28;27.20;;;5.10;99.90;;;;;;4981221;28;20099;-80
2022/01/26 14:11:59;;;;;;;62.00;26.10;;;5.20;99.90;;;;;;4995185;28;20765;-80
2022/01/26 14:14:34;;;;;;;66.10;28.45;;;5.10;99.90;;;;;;4979883;28;20042;-80
2022/01/26 14:17:02;;;;;;;57.55;26.20;;;5.20;99.90;;;;;;4973976;28;20052;-80
2022/01/26 14:19:55;;;;;;;55.50;25.70;;;5.20;99.90;;;;;;4995877;28;20030;-81
2022/01/26 14:25:15;;;;;;;56.88;24.38;;;5.20;99.90;;;;;;4985356;28;20044;-80
2022/01/26 14:27:48;;;;;;;54.63;24.85;;;5.20;99.90;;;;;;4981772;28;20191;-81
2022/01/26 14:30:25;;;;;;;63.45;26.33;;;5.30;99.90;;;;;;4980419;28;20116;-81
2022/01/26 14:33:11;;;;;;;57.08;25.98;;;5.30;99.90;;;;;;4989125;28;20138;-81
2022/01/26 14:53:11;;;;;;;59.78;25.00;;;5.30;99.90;;;;;;4992754;28;20042;-80
2022/01/26 14:55:25;;;;;;;55.45;25.63;;;5.30;99.90;;;;;;5008302;28;20050;-80
2022/01/26 15:09:01;;;;;;;57.20;26.98;;;5.30;99.90;;;;;;4998714;28;20049;-80
2022/01/26 15:29:54;;;;;;;55.15;24.38;;;5.40;99.90;;;;;;4990896;28;20576;-81
2022/01/26 15:31:28;;;;;;;51.35;24.35;;;5.30;99.90;;;;;;4994353;28;20042;-80
2022/01/26 15:33:45;;;;;;;55.45;25.75;;;5.30;99.90;;;;;;5000355;28;20498;-81
2022/01/26 15:49:52;;;;;;;55.60;25.40;;;5.40;99.90;;;;;;4992928;28;20042;-80
2022/01/26 15:52:38;;;;;;;56.45;25.25;;;5.40;99.90;;;;;;4972190;28;20173;-80
2022/01/26 16:06:15;;;;;;;55.40;24.73;;;5.40;99.90;;;;;;4997545;28;20042;-80
2022/01/26 16:19:55;;;;;;;54.45;24.45;;;5.40;99.90;;;;;;5002964;28;20058;-80
2022/01/26 16:36:14;;;;;;;60.08;25.20;;;5.50;99.90;;;;;;4989829;28;20120;-80
2022/01/26 17:02:36;;;;;;;58.28;25.80;;;5.50;99.90;;;;;;4999465;28;20119;-80
2022/01/26 18:12:59;;;;;;;55.40;26.63;;;5.60;99.90;;;;;;4990189;28;20420;-81
2022/01/26 18:25:56;;;;;;;60.25;25.83;;;5.60;99.90;;;;;;4994172;28;20038;-80
2022/01/26 18:49:33;;;;;;;48.30;24.15;;;5.70;99.90;;;;;;4994380;28;20041;-80
2022/01/26 18:52:00;;;;;;;50.78;23.13;;;5.70;99.90;;;;;;4991119;28;20123;-81